sensor_id;sensor_type;location;lat;lon;timestamp;pressure;altitude;pressure_sealevel;temperature;humidity
60319;BME280;46163;52.306;5.634;2024-03-07T00:00:21;102555.59;;;1.45;100.00
60319;BME280;46163;52.306;5.634;2024-03-07T00:02:48;102560.97;;;1.43;100.00
60319;BME280;46163;52.306;5.634;2024-03-07T00:05:15;102556.19;;;1.35;100.00
60319;BME280;46163;52.306;5.634;2024-03-07T00:07:41;102558.53;;;1.40;100.00
60319;BME280;46163;52.306;5.634;2024-03-07T00:10:07;102552.63;;;1.36;100.00
60319;BME280;46163;52.306;5.634;2024-03-07T00:12:36;102559.97;;;1.31;100.00
60319;BME280;46163;52.306;5.634;2024-03-07T00:15:04;102569.53;;;1.32;100.00
60319;BME280;46163;52.306;5.634;2024-03-07T00:17:30;102561.19;;;1.26;100.00
60319;BME280;46163;52.306;5.634;2024-03-07T00:19:55;102549.22;;;1.22;100.00
60319;BME280;46163;52.306;5.634;2024-03-07T00:22:22;102556.81;;;1.12;100.00
60319;BME280;46163;52.306;5.634;2024-03-07T00:24:48;102575.63;;;1.19;100.00
60319;BME280;46163;52.306;5.634;2024-03-07T00:27:13;102569.28;;;1.23;100.00
60319;BME280;46163;52.306;5.634;2024-03-07T00:29:42;102568.81;;;1.16;100.00
60319;BME280;46163;52.306;5.634;2024-03-07T00:32:08;102556.19;;;1.08;100.00
60319;BME280;46163;52.306;5.634;2024-03-07T00:34:34;102551.22;;;1.04;100.00
60319;BME280;46163;52.306;5.634;2024-03-07T00:36:59;102550.38;;;1.03;100.00
60319;BME280;46163;52.306;5.634;2024-03-07T00:39:26;102561.44;;;1.08;100.00
60319;BME280;46163;52.306;5.634;2024-03-07T00:41:51;102565.00;;;1.07;100.00
60319;BME280;46163;52.306;5.634;2024-03-07T00:44:17;102547.84;;;1.02;100.00
60319;BME280;46163;52.306;5.634;2024-03-07T00:46:42;102554.34;;;0.96;100.00
60319;BME280;46163;52.306;5.634;2024-03-07T00:49:08;102558.81;;;0.94;100.00
60319;BME280;46163;52.306;5.634;2024-03-07T00:51:34;102567.34;;;0.98;100.00
60319;BME280;46163;52.306;5.634;2024-03-07T00:53:59;102580.25;;;1.01;100.00
60319;BME280;46163;52.306;5.634;2024-03-07T00:56:24;102557.72;;;0.84;100.00
60319;BME280;46163;52.306;5.634;2024-03-07T00:58:53;102561.16;;;0.84;100.00
60319;BME280;46163;52.306;5.634;2024-03-07T01:01:18;102562.31;;;0.80;100.00
60319;BME280;46163;52.306;5.634;2024-03-07T01:03:44;102555.28;;;0.81;100.00
60319;BME280;46163;52.306;5.634;2024-03-07T01:06:10;102568.28;;;0.82;100.00
60319;BME280;46163;52.306;5.634;2024-03-07T01:08:36;102564.63;;;0.85;100.00
60319;BME280;46163;52.306;5.634;2024-03-07T01:11:03;102560.38;;;0.70;100.00
60319;BME280;46163;52.306;5.634;2024-03-07T01:13:44;102567.66;;;0.65;100.00
60319;BME280;46163;52.306;5.634;2024-03-07T01:16:09;102560.44;;;0.68;100.00
60319;BME280;46163;52.306;5.634;2024-03-07T01:18:35;102556.53;;;0.61;100.00
60319;BME280;46163;52.306;5.634;2024-03-07T01:21:01;102559.50;;;0.55;100.00
60319;BME280;46163;52.306;5.634;2024-03-07T01:23:27;102548.34;;;0.51;100.00
60319;BME280;46163;52.306;5.634;2024-03-07T01:25:56;102545.84;;;0.50;100.00
60319;BME280;46163;52.306;5.634;2024-03-07T01:28:25;102544.72;;;0.54;100.00
60319;BME280;46163;52.306;5.634;2024-03-07T01:30:52;102522.94;;;0.39;100.00
60319;BME280;46163;52.306;5.634;2024-03-07T01:33:18;102545.84;;;0.50;100.00
60319;BME280;46163;52.306;5.634;2024-03-07T01:35:44;102536.59;;;0.44;100.00
60319;BME280;46163;52.306;5.634;2024-03-07T01:38:10;102554.44;;;0.52;100.00
60319;BME280;46163;52.306;5.634;2024-03-07T01:40:39;102554.00;;;0.45;100.00
60319;BME280;46163;52.306;5.634;2024-03-07T01:43:04;102522.16;;;0.23;100.00
60319;BME280;46163;52.306;5.634;2024-03-07T01:45:31;102558.47;;;0.43;100.00
60319;BME280;46163;52.306;5.634;2024-03-07T01:47:57;102557.44;;;0.46;100.00
60319;BME280;46163;52.306;5.634;2024-03-07T01:50:22;102548.53;;;0.34;100.00
60319;BME280;46163;52.306;5.634;2024-03-07T01:52:48;102520.47;;;0.22;100.00
60319;BME280;46163;52.306;5.634;2024-03-07T01:55:16;102549.75;;;0.43;100.00
60319;BME280;46163;52.306;5.634;2024-03-07T01:57:41;102536.66;;;0.43;100.00
60319;BME280;46163;52.306;5.634;2024-03-07T02:00:07;102539.75;;;0.49;100.00
60319;BME280;46163;52.306;5.634;2024-03-07T02:02:34;102536.09;;;0.52;100.00
60319;BME280;46163;52.306;5.634;2024-03-07T02:05:00;102545.66;;;0.67;100.00
60319;BME280;46163;52.306;5.634;2024-03-07T02:07:26;102547.06;;;0.73;100.00
60319;BME280;46163;52.306;5.634;2024-03-07T02:10:05;102529.38;;;0.62;100.00
60319;BME280;46163;52.306;5.634;2024-03-07T02:12:31;102544.25;;;0.76;100.00
60319;BME280;46163;52.306;5.634;2024-03-07T02:14:58;102538.47;;;0.71;100.00
60319;BME280;46163;52.306;5.634;2024-03-07T02:17:25;102533.84;;;0.74;100.00
60319;BME280;46163;52.306;5.634;2024-03-07T02:19:50;102518.44;;;0.70;100.00
60319;BME280;46163;52.306;5.634;2024-03-07T02:22:16;102538.91;;;0.77;100.00
60319;BME280;46163;52.306;5.634;2024-03-07T02:24:42;102529.66;;;0.72;100.00
60319;BME280;46163;52.306;5.634;2024-03-07T02:27:07;102520.56;;;0.77;100.00
60319;BME280;46163;52.306;5.634;2024-03-07T02:29:35;102521.38;;;0.78;100.00
60319;BME280;46163;52.306;5.634;2024-03-07T02:32:01;102523.94;;;0.79;100.00
60319;BME280;46163;52.306;5.634;2024-03-07T02:34:27;102529.53;;;0.88;100.00
60319;BME280;46163;52.306;5.634;2024-03-07T02:36:52;102515.41;;;0.76;100.00
60319;BME280;46163;52.306;5.634;2024-03-07T02:39:18;102528.25;;;0.80;100.00
60319;BME280;46163;52.306;5.634;2024-03-07T02:41:43;102510.44;;;0.85;100.00
60319;BME280;46163;52.306;5.634;2024-03-07T02:44:08;102507.06;;;0.83;100.00
60319;BME280;46163;52.306;5.634;2024-03-07T02:46:34;102515.03;;;0.82;100.00
60319;BME280;46163;52.306;5.634;2024-03-07T02:48:59;102512.41;;;0.82;100.00
60319;BME280;46163;52.306;5.634;2024-03-07T02:51:25;102523.06;;;0.93;100.00
60319;BME280;46163;52.306;5.634;2024-03-07T02:53:51;102523.84;;;0.81;100.00
60319;BME280;46163;52.306;5.634;2024-03-07T02:56:16;102497.53;;;0.68;100.00
60319;BME280;46163;52.306;5.634;2024-03-07T02:58:41;102509.53;;;0.72;100.00
60319;BME280;46163;52.306;5.634;2024-03-07T03:01:07;102516.06;;;0.79;100.00
60319;BME280;46163;52.306;5.634;2024-03-07T03:03:32;102498.38;;;0.69;100.00
60319;BME280;46163;52.306;5.634;2024-03-07T03:05:59;102512.78;;;0.76;100.00
60319;BME280;46163;52.306;5.634;2024-03-07T03:08:25;102512.25;;;0.71;100.00
60319;BME280;46163;52.306;5.634;2024-03-07T03:10:51;102493.53;;;0.63;100.00
60319;BME280;46163;52.306;5.634;2024-03-07T03:13:17;102498.00;;;0.61;100.00
60319;BME280;46163;52.306;5.634;2024-03-07T03:15:43;102501.69;;;0.58;100.00
60319;BME280;46163;52.306;5.634;2024-03-07T03:18:08;102496.63;;;0.55;100.00
60319;BME280;46163;52.306;5.634;2024-03-07T03:20:35;102499.53;;;0.50;100.00
60319;BME280;46163;52.306;5.634;2024-03-07T03:23:04;102500.09;;;0.55;100.00
60319;BME280;46163;52.306;5.634;2024-03-07T03:25:30;102501.59;;;0.45;100.00
60319;BME280;46163;52.306;5.634;2024-03-07T03:28:02;102497.19;;;0.46;100.00
60319;BME280;46163;52.306;5.634;2024-03-07T03:30:29;102500.38;;;0.51;100.00
60319;BME280;46163;52.306;5.634;2024-03-07T03:32:54;102488.03;;;0.39;100.00
60319;BME280;46163;52.306;5.634;2024-03-07T03:35:20;102501.22;;;0.37;100.00
60319;BME280;46163;52.306;5.634;2024-03-07T03:37:45;102501.31;;;0.36;100.00
60319;BME280;46163;52.306;5.634;2024-03-07T03:40:11;102493.47;;;0.36;100.00
60319;BME280;46163;52.306;5.634;2024-03-07T03:42:40;102495.41;;;0.32;100.00
60319;BME280;46163;52.306;5.634;2024-03-07T03:45:08;102481.22;;;0.22;100.00
60319;BME280;46163;52.306;5.634;2024-03-07T03:47:34;102488.97;;;0.23;100.00
60319;BME280;46163;52.306;5.634;2024-03-07T03:50:04;102491.50;;;0.11;100.00
60319;BME280;46163;52.306;5.634;2024-03-07T03:52:30;102490.25;;;0.16;100.00
60319;BME280;46163;52.306;5.634;2024-03-07T03:54:57;102488.28;;;0.06;100.00
60319;BME280;46163;52.306;5.634;2024-03-07T03:57:22;102489.44;;;0.02;100.00
60319;BME280;46163;52.306;5.634;2024-03-07T03:59:48;102490.06;;;0.05;100.00
60319;BME280;46163;52.306;5.634;2024-03-07T04:02:13;102485.78;;;0.04;100.00
60319;BME280;46163;52.306;5.634;2024-03-07T04:04:40;102486.31;;;-0.05;100.00
60319;BME280;46163;52.306;5.634;2024-03-07T04:07:05;102493.53;;;-0.09;100.00
60319;BME280;46163;52.306;5.634;2024-03-07T04:09:31;102486.78;;;-0.13;100.00
60319;BME280;46163;52.306;5.634;2024-03-07T04:11:57;102475.66;;;-0.16;100.00
60319;BME280;46163;52.306;5.634;2024-03-07T04:14:23;102455.72;;;-0.19;100.00
60319;BME280;46163;52.306;5.634;2024-03-07T04:16:48;102469.97;;;-0.09;100.00
60319;BME280;46163;52.306;5.634;2024-03-07T04:19:14;102477.72;;;-0.07;100.00
60319;BME280;46163;52.306;5.634;2024-03-07T04:21:39;102483.81;;;-0.07;100.00
60319;BME280;46163;52.306;5.634;2024-03-07T04:24:05;102477.84;;;-0.09;100.00
60319;BME280;46163;52.306;5.634;2024-03-07T04:26:30;102451.47;;;-0.06;100.00
60319;BME280;46163;52.306;5.634;2024-03-07T04:28:56;102470.53;;;-0.04;100.00
60319;BME280;46163;52.306;5.634;2024-03-07T04:31:23;102475.72;;;-0.32;100.00
60319;BME280;46163;52.306;5.634;2024-03-07T04:33:48;102469.69;;;-0.48;100.00
60319;BME280;46163;52.306;5.634;2024-03-07T04:36:14;102472.00;;;-0.58;100.00
60319;BME280;46163;52.306;5.634;2024-03-07T04:38:39;102483.97;;;-0.54;100.00
60319;BME280;46163;52.306;5.634;2024-03-07T04:41:11;102473.78;;;-0.59;100.00
60319;BME280;46163;52.306;5.634;2024-03-07T04:43:36;102460.53;;;-0.71;100.00
60319;BME280;46163;52.306;5.634;2024-03-07T04:46:02;102465.38;;;-0.79;100.00
60319;BME280;46163;52.306;5.634;2024-03-07T04:48:28;102476.97;;;-1.47;100.00
60319;BME280;46163;52.306;5.634;2024-03-07T04:50:53;102467.22;;;-2.27;100.00
60319;BME280;46163;52.306;5.634;2024-03-07T04:53:18;102468.91;;;-2.96;97.84
60319;BME280;46163;52.306;5.634;2024-03-07T04:55:44;102471.66;;;-4.55;98.17
60319;BME280;46163;52.306;5.634;2024-03-07T04:58:09;102479.66;;;-3.59;100.00
60319;BME280;46163;52.306;5.634;2024-03-07T05:00:35;102473.50;;;-2.31;100.00
60319;BME280;46163;52.306;5.634;2024-03-07T05:03:00;102483.84;;;-1.61;100.00
60319;BME280;46163;52.306;5.634;2024-03-07T05:05:25;102454.94;;;-1.58;100.00
60319;BME280;46163;52.306;5.634;2024-03-07T05:07:52;102463.50;;;-1.39;100.00
60319;BME280;46163;52.306;5.634;2024-03-07T05:10:18;102478.16;;;-1.21;100.00
60319;BME280;46163;52.306;5.634;2024-03-07T05:12:43;102468.38;;;-1.33;100.00
60319;BME280;46163;52.306;5.634;2024-03-07T05:15:09;102465.28;;;-1.57;100.00
60319;BME280;46163;52.306;5.634;2024-03-07T05:17:35;102472.19;;;-3.10;96.33
60319;BME280;46163;52.306;5.634;2024-03-07T05:20:03;102483.22;;;-5.51;93.24
60319;BME280;46163;52.306;5.634;2024-03-07T05:22:38;102486.38;;;-6.64;100.00
60319;BME280;46163;52.306;5.634;2024-03-07T05:25:19;102490.31;;;-6.03;100.00
60319;BME280;46163;52.306;5.634;2024-03-07T05:27:45;102478.59;;;-4.97;100.00
60319;BME280;46163;52.306;5.634;2024-03-07T05:30:11;102485.41;;;-3.71;100.00
60319;BME280;46163;52.306;5.634;2024-03-07T05:32:38;102483.94;;;-2.65;100.00
60319;BME280;46163;52.306;5.634;2024-03-07T05:35:05;102476.88;;;-2.29;100.00
60319;BME280;46163;52.306;5.634;2024-03-07T05:37:30;102471.38;;;-2.22;100.00
60319;BME280;46163;52.306;5.634;2024-03-07T05:39:57;102470.34;;;-2.20;100.00
60319;BME280;46163;52.306;5.634;2024-03-07T05:42:22;102481.94;;;-1.91;100.00
60319;BME280;46163;52.306;5.634;2024-03-07T05:44:50;102478.03;;;-1.84;100.00
60319;BME280;46163;52.306;5.634;2024-03-07T05:47:16;102481.47;;;-2.86;100.00
60319;BME280;46163;52.306;5.634;2024-03-07T05:49:42;102474.41;;;-4.58;97.63
60319;BME280;46163;52.306;5.634;2024-03-07T05:52:08;102492.13;;;-6.30;97.87
60319;BME280;46163;52.306;5.634;2024-03-07T05:54:34;102482.81;;;-7.16;100.00
60319;BME280;46163;52.306;5.634;2024-03-07T05:57:00;102494.78;;;-6.58;100.00
60319;BME280;46163;52.306;5.634;2024-03-07T05:59:26;102480.84;;;-5.33;100.00
60319;BME280;46163;52.306;5.634;2024-03-07T06:01:56;102465.94;;;-4.02;100.00
60319;BME280;46163;52.306;5.634;2024-03-07T06:04:21;102449.31;;;-3.03;100.00
60319;BME280;46163;52.306;5.634;2024-03-07T06:06:47;102488.63;;;-2.37;100.00
60319;BME280;46163;52.306;5.634;2024-03-07T06:09:13;102480.66;;;-2.17;100.00
60319;BME280;46163;52.306;5.634;2024-03-07T06:11:40;102490.16;;;-1.98;100.00
60319;BME280;46163;52.306;5.634;2024-03-07T06:14:08;102482.75;;;-1.90;100.00
60319;BME280;46163;52.306;5.634;2024-03-07T06:16:38;102488.47;;;-2.00;100.00
60319;BME280;46163;52.306;5.634;2024-03-07T06:19:05;102497.09;;;-3.23;100.00
60319;BME280;46163;52.306;5.634;2024-03-07T06:21:35;102505.81;;;-5.07;95.85
60319;BME280;46163;52.306;5.634;2024-03-07T06:24:01;102490.75;;;-6.66;98.42
60319;BME280;46163;52.306;5.634;2024-03-07T06:26:29;102507.78;;;-7.15;100.00
60319;BME280;46163;52.306;5.634;2024-03-07T06:29:15;102516.25;;;-6.03;100.00
60319;BME280;46163;52.306;5.634;2024-03-07T06:31:41;102513.38;;;-4.79;100.00
60319;BME280;46163;52.306;5.634;2024-03-07T06:34:07;102485.50;;;-3.35;100.00
60319;BME280;46163;52.306;5.634;2024-03-07T06:36:34;102503.88;;;-2.47;100.00
60319;BME280;46163;52.306;5.634;2024-03-07T06:39:00;102485.41;;;-2.25;100.00
60319;BME280;46163;52.306;5.634;2024-03-07T06:41:25;102497.75;;;-2.11;100.00
60319;BME280;46163;52.306;5.634;2024-03-07T06:43:51;102502.31;;;-1.82;100.00
60319;BME280;46163;52.306;5.634;2024-03-07T06:46:18;102485.81;;;-1.82;100.00
60319;BME280;46163;52.306;5.634;2024-03-07T06:48:45;102500.25;;;-2.44;100.00
60319;BME280;46163;52.306;5.634;2024-03-07T06:51:10;102482.84;;;-4.12;100.00
60319;BME280;46163;52.306;5.634;2024-03-07T06:53:36;102493.78;;;-5.55;96.76
60319;BME280;46163;52.306;5.634;2024-03-07T06:56:01;102508.59;;;-6.57;100.00
60319;BME280;46163;52.306;5.634;2024-03-07T06:58:27;102503.22;;;-6.01;100.00
60319;BME280;46163;52.306;5.634;2024-03-07T07:00:53;102509.09;;;-4.80;100.00
60319;BME280;46163;52.306;5.634;2024-03-07T07:03:23;102499.28;;;-3.71;100.00
60319;BME280;46163;52.306;5.634;2024-03-07T07:05:49;102497.19;;;-2.18;100.00
60319;BME280;46163;52.306;5.634;2024-03-07T07:08:15;102492.19;;;-1.55;100.00
60319;BME280;46163;52.306;5.634;2024-03-07T07:10:41;102481.78;;;-1.39;100.00
60319;BME280;46163;52.306;5.634;2024-03-07T07:13:08;102492.31;;;-1.09;100.00
60319;BME280;46163;52.306;5.634;2024-03-07T07:15:33;102452.84;;;-1.04;100.00
60319;BME280;46163;52.306;5.634;2024-03-07T07:17:59;102487.63;;;-0.72;100.00
60319;BME280;46163;52.306;5.634;2024-03-07T07:20:27;102485.44;;;-2.09;100.00
60319;BME280;46163;52.306;5.634;2024-03-07T07:22:53;102499.94;;;-3.47;97.30
60319;BME280;46163;52.306;5.634;2024-03-07T07:25:18;102494.03;;;-5.16;99.52
60319;BME280;46163;52.306;5.634;2024-03-07T07:27:52;102500.84;;;-5.14;100.00
60319;BME280;46163;52.306;5.634;2024-03-07T07:30:19;102505.22;;;-4.28;100.00
60319;BME280;46163;52.306;5.634;2024-03-07T07:32:45;102486.91;;;-3.09;100.00
60319;BME280;46163;52.306;5.634;2024-03-07T07:35:11;102478.88;;;-1.83;100.00
60319;BME280;46163;52.306;5.634;2024-03-07T07:37:42;102483.88;;;-0.52;100.00
60319;BME280;46163;52.306;5.634;2024-03-07T07:40:09;102479.13;;;-0.02;100.00
60319;BME280;46163;52.306;5.634;2024-03-07T07:42:39;102478.75;;;0.33;100.00
60319;BME280;46163;52.306;5.634;2024-03-07T07:45:11;102481.75;;;0.41;100.00
60319;BME280;46163;52.306;5.634;2024-03-07T07:47:41;102465.25;;;0.68;100.00
60319;BME280;46163;52.306;5.634;2024-03-07T07:50:12;102477.03;;;0.89;100.00
60319;BME280;46163;52.306;5.634;2024-03-07T07:52:49;102471.38;;;0.40;100.00
60319;BME280;46163;52.306;5.634;2024-03-07T07:55:19;102473.88;;;-0.16;100.00
60319;BME280;46163;52.306;5.634;2024-03-07T07:57:50;102466.47;;;-0.68;96.01
60319;BME280;46163;52.306;5.634;2024-03-07T08:00:18;102472.59;;;-2.30;98.63
60319;BME280;46163;52.306;5.634;2024-03-07T08:05:29;102478.13;;;0.44;100.00
60319;BME280;46163;52.306;5.634;2024-03-07T08:07:57;102458.66;;;1.56;100.00
60319;BME280;46163;52.306;5.634;2024-03-07T08:10:27;102453.25;;;2.10;100.00
60319;BME280;46163;52.306;5.634;2024-03-07T08:12:56;102455.13;;;2.20;100.00
60319;BME280;46163;52.306;5.634;2024-03-07T08:15:22;102460.84;;;2.51;100.00
60319;BME280;46163;52.306;5.634;2024-03-07T08:17:48;102447.91;;;2.84;100.00
60319;BME280;46163;52.306;5.634;2024-03-07T08:20:15;102459.97;;;5.04;98.03
60319;BME280;46163;52.306;5.634;2024-03-07T08:22:42;102453.78;;;7.09;88.82
60319;BME280;46163;52.306;5.634;2024-03-07T08:25:09;102457.00;;;8.73;80.60
60319;BME280;46163;52.306;5.634;2024-03-07T08:27:39;102443.34;;;9.57;74.16
60319;BME280;46163;52.306;5.634;2024-03-07T08:30:07;102459.34;;;9.03;65.86
60319;BME280;46163;52.306;5.634;2024-03-07T08:32:50;102444.72;;;9.43;62.06
60319;BME280;46163;52.306;5.634;2024-03-07T08:35:18;102452.94;;;7.38;64.36
60319;BME280;46163;52.306;5.634;2024-03-07T08:37:45;102461.00;;;7.36;71.39
60319;BME280;46163;52.306;5.634;2024-03-07T08:40:11;102445.25;;;6.37;69.49
60319;BME280;46163;52.306;5.634;2024-03-07T08:42:44;102452.63;;;7.70;75.46
60319;BME280;46163;52.306;5.634;2024-03-07T08:45:10;102451.41;;;7.16;87.58
60319;BME280;46163;52.306;5.634;2024-03-07T08:47:36;102452.53;;;7.04;81.90
60319;BME280;46163;52.306;5.634;2024-03-07T08:50:03;102456.00;;;7.24;79.60
60319;BME280;46163;52.306;5.634;2024-03-07T08:52:34;102447.94;;;7.25;78.84
60319;BME280;46163;52.306;5.634;2024-03-07T08:55:02;102453.91;;;7.27;78.94
60319;BME280;46163;52.306;5.634;2024-03-07T08:57:28;102445.09;;;7.75;77.31
60319;BME280;46163;52.306;5.634;2024-03-07T08:59:53;102446.91;;;7.55;75.58
60319;BME280;46163;52.306;5.634;2024-03-07T09:02:19;102444.50;;;6.65;76.44
60319;BME280;46163;52.306;5.634;2024-03-07T09:04:44;102439.88;;;6.58;80.79
60319;BME280;46163;52.306;5.634;2024-03-07T09:07:10;102433.22;;;6.23;79.40
60319;BME280;46163;52.306;5.634;2024-03-07T09:09:35;102439.28;;;6.04;80.66
60319;BME280;46163;52.306;5.634;2024-03-07T09:12:01;102430.97;;;6.09;79.58
60319;BME280;46163;52.306;5.634;2024-03-07T09:14:27;102440.28;;;6.13;82.07
60319;BME280;46163;52.306;5.634;2024-03-07T09:16:53;102442.00;;;6.23;81.20
60319;BME280;46163;52.306;5.634;2024-03-07T09:19:19;102421.44;;;5.97;81.00
60319;BME280;46163;52.306;5.634;2024-03-07T09:21:48;102439.94;;;6.27;80.85
60319;BME280;46163;52.306;5.634;2024-03-07T09:24:15;102422.81;;;6.31;75.02
60319;BME280;46163;52.306;5.634;2024-03-07T09:26:41;102413.78;;;8.98;71.59
60319;BME280;46163;52.306;5.634;2024-03-07T09:29:07;102407.41;;;11.22;56.12
60319;BME280;46163;52.306;5.634;2024-03-07T09:31:33;102403.66;;;12.66;51.49
60319;BME280;46163;52.306;5.634;2024-03-07T09:33:59;102404.00;;;13.40;51.97
60319;BME280;46163;52.306;5.634;2024-03-07T09:36:25;102410.41;;;14.42;45.20
60319;BME280;46163;52.306;5.634;2024-03-07T09:38:50;102395.09;;;13.92;46.31
60319;BME280;46163;52.306;5.634;2024-03-07T09:41:16;102402.72;;;15.12;46.58
60319;BME280;46163;52.306;5.634;2024-03-07T09:43:43;102402.50;;;13.15;48.64
60319;BME280;46163;52.306;5.634;2024-03-07T09:46:12;102407.09;;;10.34;53.50
60319;BME280;46163;52.306;5.634;2024-03-07T09:48:38;102398.13;;;8.60;57.16
60319;BME280;46163;52.306;5.634;2024-03-07T09:51:05;102416.28;;;7.90;64.58
60319;BME280;46163;52.306;5.634;2024-03-07T09:53:32;102404.66;;;7.54;65.28
60319;BME280;46163;52.306;5.634;2024-03-07T09:56:00;102383.09;;;7.29;63.77
60319;BME280;46163;52.306;5.634;2024-03-07T09:58:28;102390.31;;;9.55;56.84
60319;BME280;46163;52.306;5.634;2024-03-07T10:00:57;102379.44;;;12.06;52.16
60319;BME280;46163;52.306;5.634;2024-03-07T10:03:24;102390.25;;;12.52;49.43
60319;BME280;46163;52.306;5.634;2024-03-07T10:05:54;102389.03;;;10.62;51.52
60319;BME280;46163;52.306;5.634;2024-03-07T10:08:20;102389.06;;;8.98;53.64
60319;BME280;46163;52.306;5.634;2024-03-07T10:10:47;102394.41;;;6.93;63.99
60319;BME280;46163;52.306;5.634;2024-03-07T10:13:14;102397.91;;;7.13;66.34
60319;BME280;46163;52.306;5.634;2024-03-07T10:15:39;102411.56;;;7.08;61.45
60319;BME280;46163;52.306;5.634;2024-03-07T10:18:08;102394.03;;;6.28;63.20
60319;BME280;46163;52.306;5.634;2024-03-07T10:20:36;102406.34;;;5.87;66.15
60319;BME280;46163;52.306;5.634;2024-03-07T10:23:03;102397.69;;;6.06;69.53
60319;BME280;46163;52.306;5.634;2024-03-07T10:25:28;102396.03;;;6.55;64.00
60319;BME280;46163;52.306;5.634;2024-03-07T10:27:54;102392.66;;;7.69;59.86
60319;BME280;46163;52.306;5.634;2024-03-07T10:30:20;102386.13;;;7.54;56.12
60319;BME280;46163;52.306;5.634;2024-03-07T10:32:52;102397.47;;;6.98;59.09
60319;BME280;46163;52.306;5.634;2024-03-07T10:35:23;102396.06;;;6.74;64.84
60319;BME280;46163;52.306;5.634;2024-03-07T10:37:56;102386.59;;;6.91;62.02
60319;BME280;46163;52.306;5.634;2024-03-07T10:40:25;102393.34;;;7.71;59.68
60319;BME280;46163;52.306;5.634;2024-03-07T10:42:56;102391.22;;;8.67;65.23
60319;BME280;46163;52.306;5.634;2024-03-07T10:45:22;102373.03;;;9.25;62.00
60319;BME280;46163;52.306;5.634;2024-03-07T10:47:54;102375.25;;;9.56;60.84
60319;BME280;46163;52.306;5.634;2024-03-07T10:56:01;102370.59;;;11.33;55.61
60319;BME280;46163;52.306;5.634;2024-03-07T10:58:42;102357.88;;;10.46;57.35
60319;BME280;46163;52.306;5.634;2024-03-07T11:01:13;102368.16;;;9.73;57.96
60319;BME280;46163;52.306;5.634;2024-03-07T11:03:39;102355.13;;;9.10;61.09
60319;BME280;46163;52.306;5.634;2024-03-07T11:06:06;102368.19;;;8.85;63.35
60319;BME280;46163;52.306;5.634;2024-03-07T11:08:37;102350.22;;;8.79;64.25
60319;BME280;46163;52.306;5.634;2024-03-07T11:11:03;102342.94;;;8.63;64.01
60319;BME280;46163;52.306;5.634;2024-03-07T11:13:30;102356.56;;;8.50;65.42
60319;BME280;46163;52.306;5.634;2024-03-07T11:15:56;102361.44;;;8.28;62.94
60319;BME280;46163;52.306;5.634;2024-03-07T11:18:26;102341.16;;;8.09;65.84
60319;BME280;46163;52.306;5.634;2024-03-07T11:20:54;102353.97;;;8.13;64.51
60319;BME280;46163;52.306;5.634;2024-03-07T11:26:04;102340.47;;;8.07;65.68
60319;BME280;46163;52.306;5.634;2024-03-07T11:28:37;102347.06;;;8.03;65.35
60319;BME280;46163;52.306;5.634;2024-03-07T11:31:12;102341.38;;;8.15;65.99
60319;BME280;46163;52.306;5.634;2024-03-07T11:33:38;102340.34;;;7.99;64.34
60319;BME280;46163;52.306;5.634;2024-03-07T11:36:07;102338.78;;;8.43;64.97
60319;BME280;46163;52.306;5.634;2024-03-07T11:38:32;102320.56;;;8.84;63.45
60319;BME280;46163;52.306;5.634;2024-03-07T11:41:00;102327.25;;;8.88;62.78
60319;BME280;46163;52.306;5.634;2024-03-07T11:43:27;102313.34;;;8.94;60.26
60319;BME280;46163;52.306;5.634;2024-03-07T11:45:53;102330.56;;;8.90;64.01
60319;BME280;46163;52.306;5.634;2024-03-07T11:48:23;102334.50;;;8.50;62.30
60319;BME280;46163;52.306;5.634;2024-03-07T11:50:48;102336.44;;;8.30;62.79
60319;BME280;46163;52.306;5.634;2024-03-07T11:53:14;102333.25;;;8.27;62.81
60319;BME280;46163;52.306;5.634;2024-03-07T11:55:41;102316.88;;;8.31;64.21
60319;BME280;46163;52.306;5.634;2024-03-07T11:58:19;102314.72;;;8.44;65.25
60319;BME280;46163;52.306;5.634;2024-03-07T12:00:49;102320.41;;;8.49;63.29
60319;BME280;46163;52.306;5.634;2024-03-07T12:03:20;102315.94;;;8.68;63.15
60319;BME280;46163;52.306;5.634;2024-03-07T12:05:51;102314.81;;;8.25;63.33
60319;BME280;46163;52.306;5.634;2024-03-07T12:08:17;102301.53;;;8.35;64.21
60319;BME280;46163;52.306;5.634;2024-03-07T12:10:44;102313.19;;;8.60;65.70
60319;BME280;46163;52.306;5.634;2024-03-07T12:13:10;102308.81;;;8.50;64.33
60319;BME280;46163;52.306;5.634;2024-03-07T12:15:45;102304.13;;;8.44;66.20
60319;BME280;46163;52.306;5.634;2024-03-07T12:18:10;102282.00;;;8.54;64.82
60319;BME280;46163;52.306;5.634;2024-03-07T12:20:40;102300.78;;;8.60;63.96
60319;BME280;46163;52.306;5.634;2024-03-07T12:23:06;102284.78;;;8.52;65.17
60319;BME280;46163;52.306;5.634;2024-03-07T12:25:40;102288.94;;;8.72;65.45
60319;BME280;46163;52.306;5.634;2024-03-07T12:28:07;102285.06;;;8.49;64.96
60319;BME280;46163;52.306;5.634;2024-03-07T12:30:53;102275.00;;;9.14;64.43
60319;BME280;46163;52.306;5.634;2024-03-07T12:33:20;102281.03;;;9.24;63.91
60319;BME280;46163;52.306;5.634;2024-03-07T12:35:50;102263.16;;;9.34;63.06
60319;BME280;46163;52.306;5.634;2024-03-07T12:38:18;102252.13;;;8.95;65.36
60319;BME280;46163;52.306;5.634;2024-03-07T12:40:45;102260.91;;;8.70;64.92
60319;BME280;46163;52.306;5.634;2024-03-07T12:45:48;102264.81;;;8.30;68.75
60319;BME280;46163;52.306;5.634;2024-03-07T12:48:14;102246.75;;;8.43;67.13
60319;BME280;46163;52.306;5.634;2024-03-07T12:50:40;102247.81;;;8.23;68.71
60319;BME280;46163;52.306;5.634;2024-03-07T12:53:06;102229.50;;;8.12;69.00
60319;BME280;46163;52.306;5.634;2024-03-07T12:55:38;102242.28;;;8.16;68.46
60319;BME280;46163;52.306;5.634;2024-03-07T12:58:09;102232.53;;;8.17;68.26
60319;BME280;46163;52.306;5.634;2024-03-07T13:00:38;102228.19;;;8.16;68.01
60319;BME280;46163;52.306;5.634;2024-03-07T13:03:04;102235.94;;;8.09;66.53